createdAt,value
2019-03-18T00:00:14.375Z,6.50
2019-03-18T00:02:42.489Z,6.85
2019-03-18T00:05:10.520Z,6.47
2019-03-18T00:07:38.537Z,5.65
2019-03-18T00:10:07.235Z,6.58
2019-03-18T00:12:35.264Z,5.85
2019-03-18T00:15:03.295Z,6.37
2019-03-18T00:17:31.318Z,6.37
2019-03-18T00:19:59.344Z,7.33
2019-03-18T00:22:27.380Z,5.37
2019-03-18T00:24:55.401Z,5.75
2019-03-18T00:27:23.447Z,6.28
2019-03-18T00:29:51.453Z,5.80
2019-03-18T00:32:19.476Z,5.83
2019-03-18T00:34:47.496Z,6.12
2019-03-18T00:37:15.541Z,4.92
2019-03-18T00:39:43.549Z,6.65
2019-03-18T00:42:11.630Z,5.28
2019-03-18T00:44:39.640Z,7.05
2019-03-18T00:47:07.666Z,6.45
2019-03-18T00:49:35.683Z,6.30
2019-03-18T00:52:03.712Z,5.15
2019-03-18T00:54:31.719Z,5.35
2019-03-18T00:56:59.774Z,5.53
2019-03-18T00:59:27.858Z,6.83
2019-03-18T01:01:55.911Z,7.30
2019-03-18T01:04:23.943Z,5.67
2019-03-18T01:06:51.975Z,6.12
2019-03-18T01:09:19.987Z,6.20
2019-03-18T01:11:48.027Z,5.22
2019-03-18T01:14:16.099Z,5.45
2019-03-18T01:16:44.133Z,4.87
2019-03-18T01:19:12.332Z,5.50
2019-03-18T01:21:40.335Z,4.65
2019-03-18T01:24:08.367Z,4.55
2019-03-18T01:26:36.378Z,5.22
2019-03-18T01:29:04.423Z,5.15
2019-03-18T01:31:32.501Z,4.90
2019-03-18T01:34:00.532Z,5.72
2019-03-18T01:36:28.539Z,4.78
2019-03-18T01:38:56.612Z,5.78
2019-03-18T01:41:24.627Z,5.53
2019-03-18T01:43:52.738Z,4.65
2019-03-18T01:46:20.763Z,5.65
2019-03-18T01:48:48.792Z,5.92
2019-03-18T01:51:16.805Z,4.75
2019-03-18T01:53:44.836Z,4.65
2019-03-18T01:56:12.891Z,5.03
2019-03-18T01:58:40.923Z,4.55
2019-03-18T02:01:08.972Z,4.67
2019-03-18T02:03:37.067Z,4.45
2019-03-18T02:06:05.133Z,4.62
2019-03-18T02:08:33.154Z,4.53
2019-03-18T02:11:01.179Z,5.17
2019-03-18T02:13:29.194Z,4.55
2019-03-18T02:15:57.227Z,4.03
2019-03-18T02:18:25.242Z,4.65
2019-03-18T02:20:53.290Z,4.50
2019-03-18T02:23:21.295Z,4.90
2019-03-18T02:25:49.580Z,3.62
2019-03-18T02:28:17.589Z,4.28
2019-03-18T02:30:45.672Z,4.30
2019-03-18T02:33:13.729Z,4.40
2019-03-18T02:35:41.849Z,4.62
2019-03-18T02:38:09.872Z,3.72
2019-03-18T02:40:37.897Z,5.28
2019-03-18T02:43:05.900Z,4.53
2019-03-18T02:45:33.929Z,4.50
2019-03-18T02:48:02.096Z,4.25
2019-03-18T02:50:30.172Z,3.92
2019-03-18T02:52:58.188Z,4.37
2019-03-18T02:55:26.200Z,4.42
2019-03-18T02:57:54.218Z,3.83
2019-03-18T03:00:22.235Z,3.90
2019-03-18T03:02:50.303Z,4.12
2019-03-18T03:05:18.468Z,3.83
2019-03-18T03:07:46.483Z,3.98
2019-03-18T03:10:14.770Z,4.58
2019-03-18T03:12:42.974Z,3.98
2019-03-18T03:15:14.271Z,4.08
2019-03-18T03:17:42.679Z,4.28
2019-03-18T03:20:10.970Z,3.90
2019-03-18T03:22:39.011Z,4.12
2019-03-18T03:25:08.059Z,3.92
2019-03-18T03:27:36.084Z,3.90
2019-03-18T03:30:05.192Z,4.30
2019-03-18T03:32:33.276Z,3.92
2019-03-18T03:35:01.764Z,3.95
2019-03-18T03:37:29.914Z,4.45
2019-03-18T03:39:57.977Z,3.42
2019-03-18T03:42:26.018Z,3.55
2019-03-18T03:44:54.052Z,3.85
2019-03-18T03:47:22.101Z,4.12
2019-03-18T03:49:50.116Z,3.33
2019-03-18T03:52:18.156Z,3.72
2019-03-18T03:54:46.167Z,3.45
2019-03-18T03:57:15.467Z,3.50
2019-03-18T03:59:43.483Z,3.80
2019-03-18T04:02:11.514Z,3.77
2019-03-18T04:04:39.631Z,3.62
2019-03-18T04:07:07.628Z,3.70
2019-03-18T04:09:35.663Z,3.65
2019-03-18T04:12:03.694Z,3.27
2019-03-18T04:14:31.784Z,4.33
2019-03-18T04:17:02.160Z,4.05
2019-03-18T04:19:29.639Z,3.62
2019-03-18T04:21:57.828Z,3.58
2019-03-18T04:24:25.868Z,3.80
2019-03-18T04:26:53.981Z,4.03
2019-03-18T04:29:22.780Z,2.98
2019-03-18T04:31:50.786Z,4.00
2019-03-18T04:34:18.819Z,3.17
2019-03-18T04:36:46.977Z,3.27
2019-03-18T04:39:14.996Z,3.20
2019-03-18T04:41:43.016Z,3.30
2019-03-18T04:44:11.052Z,3.37
2019-03-18T04:46:39.144Z,3.33
2019-03-18T04:49:07.183Z,3.50
2019-03-18T04:51:35.260Z,3.08
2019-03-18T04:54:03.303Z,3.10
2019-03-18T04:56:31.335Z,3.52
2019-03-18T04:58:59.398Z,3.77
2019-03-18T05:01:27.433Z,3.55
2019-03-18T05:03:55.455Z,3.15
2019-03-18T05:06:23.556Z,3.00
2019-03-18T05:08:51.587Z,3.15
2019-03-18T05:11:19.659Z,2.77
2019-03-18T05:13:47.757Z,3.35
2019-03-18T05:16:16.029Z,3.58
2019-03-18T05:18:44.045Z,3.27
2019-03-18T05:21:12.074Z,2.98
2019-03-18T05:23:40.094Z,3.05
2019-03-18T05:26:08.130Z,3.08
2019-03-18T05:28:36.152Z,3.27
2019-03-18T05:31:04.221Z,2.60
2019-03-18T05:33:32.235Z,2.70
2019-03-18T05:36:00.364Z,2.87
2019-03-18T05:38:28.426Z,3.20
2019-03-18T05:40:56.450Z,2.65
2019-03-18T05:43:24.544Z,3.10
2019-03-18T05:45:52.576Z,3.40
2019-03-18T05:48:20.601Z,2.92
2019-03-18T05:50:48.621Z,3.08
2019-03-18T05:53:16.652Z,3.08
2019-03-18T05:55:44.680Z,3.58
2019-03-18T05:58:12.787Z,2.62
2019-03-18T06:00:40.806Z,2.40
2019-03-18T06:03:08.844Z,3.15
2019-03-18T06:05:36.859Z,2.62
2019-03-18T06:08:04.877Z,3.10
2019-03-18T06:10:32.888Z,2.80
2019-03-18T06:13:00.923Z,2.77
2019-03-18T06:15:28.919Z,2.80
2019-03-18T06:17:56.946Z,2.58
2019-03-18T06:20:25.007Z,2.58
2019-03-18T06:22:53.072Z,2.65
2019-03-18T06:25:21.093Z,2.85
2019-03-18T06:27:49.196Z,3.10
2019-03-18T06:30:17.471Z,2.42
2019-03-18T06:32:45.535Z,2.45
2019-03-18T06:35:13.550Z,2.33
2019-03-18T06:37:41.579Z,3.08
2019-03-18T06:40:10.272Z,2.70
2019-03-18T06:42:38.367Z,2.30
2019-03-18T06:45:07.815Z,3.62
2019-03-18T06:47:35.840Z,2.67
2019-03-18T06:50:04.835Z,2.12
2019-03-18T06:52:32.845Z,2.22
2019-03-18T06:55:00.875Z,2.45
2019-03-18T06:57:28.968Z,2.15
2019-03-18T06:59:56.996Z,2.52
2019-03-18T07:02:25.009Z,2.37
2019-03-18T07:04:53.137Z,2.70
2019-03-18T07:07:21.154Z,2.58
2019-03-18T07:09:49.336Z,2.35
2019-03-18T07:12:17.439Z,2.40
2019-03-18T07:14:45.462Z,2.25
2019-03-18T07:17:13.473Z,2.65
2019-03-18T07:19:41.496Z,2.70
2019-03-18T07:22:09.546Z,2.55
2019-03-18T07:24:38.035Z,2.30
2019-03-18T07:27:06.070Z,2.47
2019-03-18T07:29:34.082Z,2.50
2019-03-18T07:32:02.123Z,2.10
2019-03-18T07:34:30.135Z,2.30
2019-03-18T07:36:58.170Z,2.35
2019-03-18T07:39:26.192Z,2.30
2019-03-18T07:41:54.338Z,2.67
2019-03-18T07:44:22.360Z,2.35
2019-03-18T07:46:50.398Z,2.20
2019-03-18T07:49:18.435Z,2.20
2019-03-18T07:51:46.460Z,2.25
2019-03-18T07:54:14.560Z,2.60
2019-03-18T07:56:42.568Z,3.00
2019-03-18T07:59:10.676Z,3.35
2019-03-18T08:01:38.702Z,3.37
2019-03-18T08:04:06.730Z,4.05
2019-03-18T08:06:34.749Z,3.08
2019-03-18T08:09:03.076Z,3.65
2019-03-18T08:11:31.091Z,1.85
2019-03-18T08:13:59.138Z,3.02
2019-03-18T08:16:27.144Z,3.02
2019-03-18T08:18:55.281Z,3.22
2019-03-18T08:21:23.309Z,2.77
2019-03-18T08:23:51.407Z,2.95
2019-03-18T08:26:19.427Z,2.25
2019-03-18T08:28:47.460Z,2.47
2019-03-18T08:31:15.493Z,2.60
2019-03-18T08:33:43.522Z,2.87
2019-03-18T08:36:11.548Z,2.37
2019-03-18T08:38:39.609Z,2.90
2019-03-18T08:41:07.611Z,3.17
2019-03-18T08:43:35.742Z,2.33
2019-03-18T08:46:03.768Z,2.95
2019-03-18T08:48:31.803Z,3.17
2019-03-18T08:50:59.822Z,3.58
2019-03-18T08:53:27.871Z,2.15
2019-03-18T08:55:55.875Z,2.27
2019-03-18T08:58:23.922Z,1.92
2019-03-18T09:00:51.930Z,2.00
2019-03-18T09:03:19.938Z,2.08
2019-03-18T09:05:48.087Z,2.12
2019-03-18T09:08:16.152Z,2.67
2019-03-18T09:10:44.207Z,2.33
2019-03-18T09:13:12.264Z,2.00
2019-03-18T09:15:40.284Z,2.10
2019-03-18T09:18:08.396Z,2.62
2019-03-18T09:20:36.452Z,2.67
2019-03-18T09:23:04.484Z,1.90
2019-03-18T09:25:32.521Z,2.27
2019-03-18T09:28:00.532Z,2.77
2019-03-18T09:30:28.594Z,2.37
2019-03-18T09:32:56.616Z,1.52
2019-03-18T09:35:24.665Z,1.55
2019-03-18T09:37:52.672Z,2.70
2019-03-18T09:40:20.698Z,1.57
2019-03-18T09:42:48.817Z,3.17
2019-03-18T09:45:17.325Z,3.08
2019-03-18T09:47:45.359Z,2.62
2019-03-18T09:50:13.385Z,2.12
2019-03-18T09:52:41.407Z,1.47
2019-03-18T09:55:09.571Z,1.70
2019-03-18T09:57:37.601Z,1.57
2019-03-18T10:00:07.266Z,1.30
2019-03-18T10:02:35.295Z,4.35
2019-03-18T10:05:04.103Z,3.58
2019-03-18T10:07:32.177Z,2.87
2019-03-18T10:10:00.354Z,1.55
2019-03-18T10:12:28.555Z,1.72
2019-03-18T10:14:56.564Z,2.42
2019-03-18T10:17:24.667Z,0.98
2019-03-18T10:19:53.628Z,2.30
2019-03-18T10:22:21.964Z,1.37
2019-03-18T10:24:49.972Z,2.67
2019-03-18T10:27:18.000Z,2.92
2019-03-18T10:29:46.011Z,1.75
2019-03-18T10:32:14.044Z,2.52
2019-03-18T10:34:42.214Z,1.95
2019-03-18T10:37:10.335Z,4.55
2019-03-18T10:39:38.403Z,4.22
2019-03-18T10:42:06.408Z,2.95
2019-03-18T10:44:34.463Z,6.00
2019-03-18T10:47:02.583Z,2.87
2019-03-18T10:49:30.605Z,7.37
2019-03-18T10:51:58.639Z,7.25
2019-03-18T10:54:31.219Z,4.45
2019-03-18T10:56:56.566Z,4.50
2019-03-18T10:59:24.594Z,4.17
2019-03-18T11:01:52.679Z,5.53
2019-03-18T11:04:20.730Z,3.90
2019-03-18T11:06:48.768Z,4.33
2019-03-18T11:09:16.791Z,3.02
2019-03-18T11:11:44.817Z,2.70
2019-03-18T11:14:12.949Z,4.72
2019-03-18T11:16:40.971Z,2.75
2019-03-18T11:19:09.083Z,3.15
2019-03-18T11:21:37.087Z,5.10
2019-03-18T11:24:05.108Z,4.85
2019-03-18T11:26:33.127Z,3.65
2019-03-18T11:29:01.190Z,4.22
2019-03-18T11:31:29.260Z,4.50
2019-03-18T11:33:57.295Z,3.83
2019-03-18T11:36:25.315Z,3.52
2019-03-18T11:38:53.402Z,5.00
2019-03-18T11:41:21.431Z,3.40
2019-03-18T11:43:49.457Z,3.42
2019-03-18T11:46:17.500Z,3.85
2019-03-18T11:48:45.504Z,4.78
2019-03-18T11:51:13.579Z,3.27
2019-03-18T11:53:41.591Z,3.95
2019-03-18T11:56:09.620Z,4.70
2019-03-18T11:58:37.935Z,4.60
2019-03-18T12:01:05.956Z,5.15
2019-03-18T12:03:34.068Z,4.05
2019-03-18T12:06:02.158Z,5.70
2019-03-18T12:08:30.163Z,4.37
2019-03-18T12:10:58.236Z,5.15
2019-03-18T12:13:26.262Z,4.95
2019-03-18T12:15:54.396Z,4.33
2019-03-18T12:18:22.428Z,4.67
2019-03-18T12:20:50.457Z,4.75
2019-03-18T12:23:18.482Z,2.35
2019-03-18T12:25:46.517Z,5.85
2019-03-18T12:28:14.528Z,5.37
2019-03-18T12:30:42.549Z,4.83
2019-03-18T12:33:10.853Z,3.95
2019-03-18T12:35:38.854Z,4.37
2019-03-18T12:38:06.903Z,4.65
2019-03-18T12:40:34.982Z,4.92
2019-03-18T12:43:03.062Z,4.58
2019-03-18T12:45:31.135Z,4.62
2019-03-18T12:47:59.340Z,3.95
2019-03-18T12:50:55.336Z,4.58
2019-03-18T12:52:57.135Z,2.87
2019-03-18T12:55:25.231Z,3.35
2019-03-18T12:57:53.271Z,3.83
2019-03-18T13:00:25.864Z,4.00
2019-03-18T13:02:53.903Z,3.87
2019-03-18T13:05:21.917Z,3.52
2019-03-18T13:07:49.953Z,3.62
2019-03-18T13:10:21.232Z,2.77
2019-03-18T13:12:48.082Z,2.15
2019-03-18T13:15:16.642Z,2.77
2019-03-18T13:17:44.683Z,2.80
2019-03-18T13:20:14.344Z,3.08
2019-03-18T13:22:42.469Z,2.65
2019-03-18T13:25:11.076Z,1.80
2019-03-18T13:27:39.117Z,3.37
2019-03-18T13:30:08.998Z,1.92
2019-03-18T13:32:37.008Z,4.30
2019-03-18T13:35:05.039Z,3.77
2019-03-18T13:37:33.062Z,3.90
2019-03-18T13:40:01.105Z,2.50
2019-03-18T13:42:29.225Z,2.37
2019-03-18T13:44:57.409Z,2.83
2019-03-18T13:47:25.419Z,3.17
2019-03-18T13:49:53.455Z,2.37
2019-03-18T13:52:21.470Z,3.12
2019-03-18T13:54:49.497Z,2.12
2019-03-18T13:57:17.508Z,3.05
2019-03-18T13:59:45.535Z,3.12
2019-03-18T14:02:13.564Z,2.67
2019-03-18T14:04:41.603Z,3.15
2019-03-18T14:07:09.719Z,1.92
2019-03-18T14:09:37.759Z,3.52
2019-03-18T14:12:05.772Z,2.62
2019-03-18T14:14:33.814Z,2.92
2019-03-18T14:17:01.839Z,2.15
2019-03-18T14:19:29.896Z,2.33
2019-03-18T14:21:57.906Z,4.00
2019-03-18T14:24:25.951Z,2.20
2019-03-18T14:26:53.972Z,2.15
2019-03-18T14:29:22.023Z,3.67
2019-03-18T14:31:50.040Z,1.92
2019-03-18T14:34:18.044Z,2.20
2019-03-18T14:36:46.107Z,2.30
2019-03-18T14:39:14.132Z,1.90
2019-03-18T14:41:42.247Z,2.27
2019-03-18T14:44:10.260Z,2.95
2019-03-18T14:46:38.292Z,2.00
2019-03-18T14:49:06.314Z,2.15
2019-03-18T14:51:45.358Z,5.08
2019-03-18T14:54:04.152Z,3.08
2019-03-18T14:56:32.252Z,1.85
2019-03-18T14:59:00.314Z,5.00
2019-03-18T15:01:28.339Z,2.98
2019-03-18T15:03:56.364Z,3.00
2019-03-18T15:06:24.400Z,2.52
2019-03-18T15:08:52.512Z,2.98
2019-03-18T15:11:20.590Z,3.08
2019-03-18T15:13:51.286Z,2.10
2019-03-18T15:16:18.418Z,1.75
2019-03-18T15:18:46.537Z,1.77
2019-03-18T15:21:14.643Z,3.98
2019-03-18T15:23:42.658Z,1.40
2019-03-18T15:26:10.674Z,2.75
2019-03-18T15:28:38.707Z,3.30
2019-03-18T15:31:06.812Z,3.40
2019-03-18T15:33:34.882Z,2.15
2019-03-18T15:36:02.899Z,2.45
2019-03-18T15:38:30.952Z,2.42
2019-03-18T15:40:58.939Z,2.92
2019-03-18T15:43:26.983Z,2.55
2019-03-18T15:45:54.999Z,3.67
2019-03-18T15:48:23.032Z,2.55
2019-03-18T15:50:51.060Z,9.78
2019-03-18T15:53:19.110Z,8.33
2019-03-18T15:55:47.116Z,7.75
2019-03-18T15:58:15.219Z,7.80
2019-03-18T16:00:44.159Z,3.37
2019-03-18T16:03:12.191Z,8.95
2019-03-18T16:05:40.197Z,5.28
2019-03-18T16:08:08.223Z,8.13
2019-03-18T16:10:36.243Z,3.10
2019-03-18T16:13:04.287Z,7.62
2019-03-18T16:15:32.336Z,9.45
2019-03-18T16:18:00.336Z,13.93
2019-03-18T16:20:28.377Z,4.92
2019-03-18T16:22:56.376Z,1.55
2019-03-18T16:25:24.405Z,11.90
2019-03-18T16:27:52.484Z,5.15
2019-03-18T16:30:21.203Z,5.75
2019-03-18T16:32:49.232Z,2.55
2019-03-18T16:35:17.443Z,2.77
2019-03-18T16:37:45.477Z,5.62
2019-03-18T16:40:14.262Z,4.45
2019-03-18T16:42:42.689Z,6.10
2019-03-18T16:45:11.696Z,4.33
2019-03-18T16:47:39.718Z,3.15
2019-03-18T16:50:09.409Z,3.37
2019-03-18T16:52:37.430Z,3.05
2019-03-18T16:55:05.659Z,3.65
2019-03-18T16:57:33.700Z,3.10
2019-03-18T17:00:01.745Z,3.12
2019-03-18T17:02:29.903Z,3.90
2019-03-18T17:04:57.907Z,3.70
2019-03-18T17:07:25.966Z,2.30
2019-03-18T17:09:54.077Z,2.60
2019-03-18T17:12:22.172Z,4.35
2019-03-18T17:14:50.208Z,6.80
2019-03-18T17:17:18.304Z,5.25
2019-03-18T17:19:46.371Z,9.30
2019-03-18T17:22:14.395Z,10.20
2019-03-18T17:24:42.416Z,6.12
2019-03-18T17:27:10.464Z,8.53
2019-03-18T17:29:38.467Z,7.30
2019-03-18T17:32:06.529Z,9.00
2019-03-18T17:34:34.568Z,8.58
2019-03-18T17:37:02.608Z,7.42
2019-03-18T17:39:30.803Z,8.93
2019-03-18T17:41:58.999Z,9.28
2019-03-18T17:44:27.111Z,7.70
2019-03-18T17:46:55.130Z,3.62
2019-03-18T17:49:23.183Z,2.92
2019-03-18T17:51:51.248Z,3.25
2019-03-18T17:54:19.356Z,3.77
2019-03-18T17:56:47.365Z,3.08
2019-03-18T17:59:15.511Z,2.05
2019-03-18T18:01:43.546Z,1.35
2019-03-18T18:04:11.664Z,2.12
2019-03-18T18:06:39.663Z,2.75
2019-03-18T18:09:07.721Z,2.65
2019-03-18T18:11:35.832Z,2.58
2019-03-18T18:14:03.954Z,2.90
2019-03-18T18:16:32.437Z,1.90
2019-03-18T18:19:00.491Z,2.17
2019-03-18T18:21:28.675Z,9.70
2019-03-18T18:23:56.720Z,8.28
2019-03-18T18:26:24.878Z,5.22
2019-03-18T18:28:52.924Z,3.35
2019-03-18T18:31:20.962Z,6.67
2019-03-18T18:33:48.979Z,3.30
2019-03-18T18:36:17.159Z,3.12
2019-03-18T18:38:45.170Z,3.47
2019-03-18T18:41:13.215Z,4.25
2019-03-18T18:43:41.407Z,3.60
2019-03-18T18:46:09.436Z,3.22
2019-03-18T18:48:38.224Z,4.15
2019-03-18T18:51:06.335Z,6.53
2019-03-18T18:53:34.377Z,4.20
2019-03-18T18:56:03.267Z,5.72
2019-03-18T18:58:31.282Z,3.27
2019-03-18T19:00:59.461Z,3.50
2019-03-18T19:03:27.572Z,3.60
2019-03-18T19:05:55.588Z,4.75
2019-03-18T19:08:23.703Z,3.92
2019-03-18T19:10:51.743Z,1.60
2019-03-18T19:13:19.756Z,3.50
2019-03-18T19:15:48.018Z,4.58
2019-03-18T19:18:16.108Z,3.62
2019-03-18T19:20:44.152Z,2.72
2019-03-18T19:23:12.170Z,2.98
2019-03-18T19:25:40.198Z,3.02
2019-03-18T19:28:08.215Z,3.58
2019-03-18T19:30:36.311Z,2.92
2019-03-18T19:33:04.363Z,3.27
2019-03-18T19:35:32.416Z,2.85
2019-03-18T19:38:00.444Z,2.30
2019-03-18T19:40:28.565Z,2.10
2019-03-18T19:42:56.818Z,2.62
2019-03-18T19:45:24.904Z,2.42
2019-03-18T19:47:53.526Z,3.20
2019-03-18T19:50:23.361Z,2.05
2019-03-18T19:52:51.402Z,4.03
2019-03-18T19:55:19.429Z,2.58
2019-03-18T19:57:47.527Z,2.15
2019-03-18T20:00:19.669Z,3.98
2019-03-18T20:02:47.718Z,1.53
2019-03-18T20:05:18.665Z,3.70
2019-03-18T20:07:45.519Z,2.22
2019-03-18T20:10:14.535Z,1.72
2019-03-18T20:12:42.634Z,1.98
2019-03-18T20:15:13.940Z,2.08
2019-03-18T20:17:42.051Z,3.40
2019-03-18T20:20:11.248Z,2.00
2019-03-18T20:22:39.287Z,1.90
2019-03-18T20:25:08.268Z,2.33
2019-03-18T20:27:36.275Z,2.37
2019-03-18T20:30:14.618Z,2.35
2019-03-18T20:32:42.745Z,2.85
2019-03-18T20:35:11.912Z,2.58
2019-03-18T20:37:40.113Z,2.05
2019-03-18T20:40:09.644Z,1.62
2019-03-18T20:42:37.727Z,1.50
2019-03-18T20:45:07.412Z,2.20
2019-03-18T20:47:35.439Z,2.83
2019-03-18T20:50:04.858Z,2.62
2019-03-18T20:52:32.883Z,2.85
2019-03-18T20:55:01.090Z,2.50
2019-03-18T20:57:29.194Z,1.82
2019-03-18T20:59:57.240Z,1.67
2019-03-18T21:02:25.290Z,2.00
2019-03-18T21:04:53.320Z,2.60
2019-03-18T21:07:21.332Z,1.65
2019-03-18T21:09:49.465Z,1.95
2019-03-18T21:12:17.568Z,4.22
2019-03-18T21:14:45.619Z,2.40
2019-03-18T21:17:13.644Z,2.15
2019-03-18T21:19:41.671Z,1.72
2019-03-18T21:22:09.689Z,2.27
2019-03-18T21:24:37.741Z,1.65
2019-03-18T21:27:05.864Z,1.82
2019-03-18T21:29:33.979Z,1.95
2019-03-18T21:32:02.111Z,1.60
2019-03-18T21:34:30.150Z,3.02
2019-03-18T21:36:58.353Z,1.95
2019-03-18T21:39:26.351Z,2.52
2019-03-18T21:41:54.376Z,2.22
2019-03-18T21:44:22.402Z,3.05
2019-03-18T21:46:50.459Z,2.25
2019-03-18T21:49:18.505Z,1.30
2019-03-18T21:51:46.673Z,1.65
2019-03-18T21:54:14.719Z,1.72
2019-03-18T21:56:43.503Z,1.77
2019-03-18T21:59:15.334Z,1.90
2019-03-18T22:01:44.549Z,2.25
2019-03-18T22:04:12.721Z,2.10
2019-03-18T22:06:40.777Z,1.35
2019-03-18T22:09:09.766Z,1.50
2019-03-18T22:11:37.789Z,2.00
2019-03-18T22:14:05.796Z,1.42
2019-03-18T22:16:33.856Z,1.95
2019-03-18T22:19:01.938Z,1.95
2019-03-18T22:21:29.956Z,1.40
2019-03-18T22:23:58.008Z,1.80
2019-03-18T22:26:26.027Z,1.87
2019-03-18T22:28:54.062Z,2.37
2019-03-18T22:31:22.067Z,2.00
2019-03-18T22:33:50.215Z,1.30
2019-03-18T22:36:18.220Z,1.80
2019-03-18T22:38:46.294Z,1.82
2019-03-18T22:41:14.475Z,1.57
2019-03-18T22:43:42.540Z,1.70
2019-03-18T22:46:10.653Z,1.75
2019-03-18T22:48:38.692Z,1.52
2019-03-18T22:51:06.895Z,1.10
2019-03-18T22:53:34.995Z,1.50
2019-03-18T22:56:03.005Z,1.87
2019-03-18T22:58:31.373Z,1.30
2019-03-18T23:01:10.592Z,1.87
2019-03-18T23:03:38.956Z,1.20
2019-03-18T23:06:07.004Z,1.35
2019-03-18T23:08:35.011Z,2.00
2019-03-18T23:11:03.067Z,2.20
2019-03-18T23:13:31.067Z,3.05
2019-03-18T23:15:59.117Z,2.20
2019-03-18T23:18:27.222Z,1.87
2019-03-18T23:20:55.245Z,1.60
2019-03-18T23:23:23.459Z,1.42
2019-03-18T23:25:51.500Z,1.57
2019-03-18T23:28:19.509Z,1.72
2019-03-18T23:30:47.529Z,1.32
2019-03-18T23:33:15.632Z,1.20
2019-03-18T23:35:43.698Z,1.75
2019-03-18T23:38:11.778Z,1.45
2019-03-18T23:40:39.807Z,1.62
2019-03-18T23:43:07.822Z,1.57
2019-03-18T23:45:35.859Z,2.67
2019-03-18T23:48:04.046Z,1.00
2019-03-18T23:50:32.086Z,1.15
2019-03-18T23:53:00.101Z,1.82
2019-03-18T23:55:28.142Z,1.00
2019-03-18T23:57:56.239Z,2.75
